sensor_id;sensor_type;location;lat;lon;timestamp;pressure;altitude;pressure_sealevel;temperature;humidity
80892;BME280;70343;51.530;5.050;2023-11-19T00:01:33;100883.19;;;12.24;100.00
80892;BME280;70343;51.530;5.050;2023-11-19T00:03:58;100875.16;;;12.26;100.00
80892;BME280;70343;51.530;5.050;2023-11-19T00:06:24;100875.97;;;12.26;100.00
80892;BME280;70343;51.530;5.050;2023-11-19T00:08:51;100858.66;;;12.25;100.00
80892;BME280;70343;51.530;5.050;2023-11-19T00:11:17;100870.75;;;12.26;100.00
80892;BME280;70343;51.530;5.050;2023-11-19T00:13:42;100834.31;;;12.25;100.00
80892;BME280;70343;51.530;5.050;2023-11-19T00:16:08;100837.53;;;12.27;100.00
80892;BME280;70343;51.530;5.050;2023-11-19T00:18:35;100839.75;;;12.23;100.00
80892;BME280;70343;51.530;5.050;2023-11-19T00:21:02;100832.50;;;12.25;100.00
80892;BME280;70343;51.530;5.050;2023-11-19T00:23:28;100826.69;;;12.23;100.00
80892;BME280;70343;51.530;5.050;2023-11-19T00:25:53;100828.06;;;12.19;100.00
80892;BME280;70343;51.530;5.050;2023-11-19T00:28:19;100823.28;;;12.23;100.00
80892;BME280;70343;51.530;5.050;2023-11-19T00:30:44;100832.13;;;12.28;100.00
80892;BME280;70343;51.530;5.050;2023-11-19T00:33:10;100825.28;;;12.27;100.00
80892;BME280;70343;51.530;5.050;2023-11-19T00:35:37;100832.50;;;12.25;100.00
80892;BME280;70343;51.530;5.050;2023-11-19T00:38:02;100820.03;;;12.27;100.00
80892;BME280;70343;51.530;5.050;2023-11-19T00:40:29;100828.50;;;12.23;100.00
80892;BME280;70343;51.530;5.050;2023-11-19T00:42:55;100843.56;;;12.27;100.00
80892;BME280;70343;51.530;5.050;2023-11-19T00:45:21;100844.38;;;12.21;100.00
80892;BME280;70343;51.530;5.050;2023-11-19T00:47:46;100846.81;;;12.23;100.00
80892;BME280;70343;51.530;5.050;2023-11-19T00:50:12;100846.97;;;12.21;100.00
80892;BME280;70343;51.530;5.050;2023-11-19T00:52:38;100847.59;;;12.23;100.00
80892;BME280;70343;51.530;5.050;2023-11-19T00:55:05;100843.59;;;12.21;100.00
80892;BME280;70343;51.530;5.050;2023-11-19T00:57:31;100839.34;;;12.20;100.00
80892;BME280;70343;51.530;5.050;2023-11-19T00:59:58;100841.16;;;12.19;100.00
80892;BME280;70343;51.530;5.050;2023-11-19T01:02:24;100850.00;;;12.18;100.00
80892;BME280;70343;51.530;5.050;2023-11-19T01:04:50;100846.59;;;12.18;100.00
80892;BME280;70343;51.530;5.050;2023-11-19T01:07:15;100850.00;;;12.25;100.00
80892;BME280;70343;51.530;5.050;2023-11-19T01:09:42;100845.78;;;12.24;100.00
80892;BME280;70343;51.530;5.050;2023-11-19T01:12:08;100839.13;;;12.21;100.00
80892;BME280;70343;51.530;5.050;2023-11-19T01:14:34;100816.63;;;12.20;100.00
80892;BME280;70343;51.530;5.050;2023-11-19T01:17:00;100809.19;;;12.24;100.00
80892;BME280;70343;51.530;5.050;2023-11-19T01:19:26;100798.72;;;12.24;100.00
80892;BME280;70343;51.530;5.050;2023-11-19T01:21:54;100797.72;;;12.18;100.00
80892;BME280;70343;51.530;5.050;2023-11-19T01:24:20;100797.72;;;12.12;100.00
80892;BME280;70343;51.530;5.050;2023-11-19T01:26:46;100795.50;;;12.09;100.00
80892;BME280;70343;51.530;5.050;2023-11-19T01:29:15;100803.16;;;12.10;100.00
80892;BME280;70343;51.530;5.050;2023-11-19T01:31:41;100813.00;;;12.08;100.00
80892;BME280;70343;51.530;5.050;2023-11-19T01:34:06;100824.84;;;12.04;100.00
80892;BME280;70343;51.530;5.050;2023-11-19T01:36:32;100831.09;;;12.03;100.00
80892;BME280;70343;51.530;5.050;2023-11-19T01:38:57;100835.28;;;12.04;100.00
80892;BME280;70343;51.530;5.050;2023-11-19T01:41:23;100826.06;;;12.08;100.00
80892;BME280;70343;51.530;5.050;2023-11-19T01:43:50;100820.22;;;12.06;100.00
80892;BME280;70343;51.530;5.050;2023-11-19T01:46:16;100821.63;;;12.02;100.00
80892;BME280;70343;51.530;5.050;2023-11-19T01:48:45;100818.41;;;12.00;100.00
80892;BME280;70343;51.530;5.050;2023-11-19T01:51:12;100816.97;;;11.98;100.00
80892;BME280;70343;51.530;5.050;2023-11-19T01:53:39;100820.81;;;12.02;100.00
80892;BME280;70343;51.530;5.050;2023-11-19T01:56:07;100828.03;;;12.00;100.00
80892;BME280;70343;51.530;5.050;2023-11-19T01:58:36;100827.25;;;11.99;100.00
80892;BME280;70343;51.530;5.050;2023-11-19T02:01:02;100826.66;;;11.97;100.00
80892;BME280;70343;51.530;5.050;2023-11-19T02:03:31;100825.22;;;11.95;100.00
80892;BME280;70343;51.530;5.050;2023-11-19T02:05:58;100810.75;;;11.92;100.00
80892;BME280;70343;51.530;5.050;2023-11-19T02:08:24;100810.13;;;11.90;100.00
80892;BME280;70343;51.530;5.050;2023-11-19T02:10:49;100819.19;;;11.88;100.00
80892;BME280;70343;51.530;5.050;2023-11-19T02:13:15;100815.16;;;11.85;100.00
80892;BME280;70343;51.530;5.050;2023-11-19T02:15:41;100819.16;;;11.81;100.00
80892;BME280;70343;51.530;5.050;2023-11-19T02:18:28;100818.94;;;11.76;100.00
80892;BME280;70343;51.530;5.050;2023-11-19T02:20:58;100824.56;;;11.73;100.00
80892;BME280;70343;51.530;5.050;2023-11-19T02:23:26;100804.25;;;11.69;100.00
80892;BME280;70343;51.530;5.050;2023-11-19T02:28:41;100813.25;;;11.59;100.00
80892;BME280;70343;51.530;5.050;2023-11-19T02:31:07;100817.44;;;11.54;100.00
80892;BME280;70343;51.530;5.050;2023-11-19T02:33:38;100817.25;;;11.55;100.00
80892;BME280;70343;51.530;5.050;2023-11-19T02:36:05;100821.44;;;11.50;100.00
80892;BME280;70343;51.530;5.050;2023-11-19T02:38:35;100804.56;;;11.46;100.00
80892;BME280;70343;51.530;5.050;2023-11-19T02:41:04;100810.53;;;11.40;100.00
80892;BME280;70343;51.530;5.050;2023-11-19T02:43:33;100807.53;;;11.36;100.00
80892;BME280;70343;51.530;5.050;2023-11-19T02:46:05;100799.50;;;11.38;100.00
80892;BME280;70343;51.530;5.050;2023-11-19T02:48:34;100805.72;;;11.37;100.00
80892;BME280;70343;51.530;5.050;2023-11-19T02:51:04;100803.72;;;11.39;100.00
80892;BME280;70343;51.530;5.050;2023-11-19T02:53:30;100794.47;;;11.36;100.00
80892;BME280;70343;51.530;5.050;2023-11-19T02:55:56;100801.69;;;11.34;100.00
80892;BME280;70343;51.530;5.050;2023-11-19T02:58:28;100808.88;;;11.26;100.00
80892;BME280;70343;51.530;5.050;2023-11-19T03:00:54;100817.72;;;11.25;100.00
80892;BME280;70343;51.530;5.050;2023-11-19T03:03:23;100805.63;;;11.17;100.00
80892;BME280;70343;51.530;5.050;2023-11-19T03:05:54;100803.19;;;11.16;100.00
80892;BME280;70343;51.530;5.050;2023-11-19T03:08:20;100814.44;;;11.10;100.00
80892;BME280;70343;51.530;5.050;2023-11-19T03:10:46;100818.41;;;11.06;100.00
80892;BME280;70343;51.530;5.050;2023-11-19T03:13:13;100827.69;;;11.15;100.00
80892;BME280;70343;51.530;5.050;2023-11-19T03:15:42;100809.22;;;11.16;100.00
80892;BME280;70343;51.530;5.050;2023-11-19T03:18:08;100809.63;;;11.20;100.00
80892;BME280;70343;51.530;5.050;2023-11-19T03:20:34;100800.56;;;11.16;100.00
80892;BME280;70343;51.530;5.050;2023-11-19T03:23:00;100826.06;;;11.14;100.00
80892;BME280;70343;51.530;5.050;2023-11-19T03:25:27;100821.25;;;11.11;100.00
80892;BME280;70343;51.530;5.050;2023-11-19T03:27:58;100814.84;;;11.13;100.00
80892;BME280;70343;51.530;5.050;2023-11-19T03:30:24;100807.59;;;11.09;100.00
80892;BME280;70343;51.530;5.050;2023-11-19T03:32:50;100807.97;;;11.06;100.00
80892;BME280;70343;51.530;5.050;2023-11-19T03:35:15;100796.47;;;11.00;100.00
80892;BME280;70343;51.530;5.050;2023-11-19T03:37:41;100807.13;;;10.99;100.00
80892;BME280;70343;51.530;5.050;2023-11-19T03:40:07;100811.72;;;10.97;100.00
80892;BME280;70343;51.530;5.050;2023-11-19T03:42:32;100808.75;;;11.00;100.00
80892;BME280;70343;51.530;5.050;2023-11-19T03:44:58;100808.75;;;11.00;100.00
80892;BME280;70343;51.530;5.050;2023-11-19T03:47:24;100810.97;;;11.03;100.00
80892;BME280;70343;51.530;5.050;2023-11-19T03:49:50;100804.31;;;11.00;100.00
80892;BME280;70343;51.530;5.050;2023-11-19T03:52:16;100812.34;;;10.99;100.00
80892;BME280;70343;51.530;5.050;2023-11-19T03:54:42;100800.66;;;10.95;100.00
80892;BME280;70343;51.530;5.050;2023-11-19T03:57:08;100793.44;;;10.97;100.00
80892;BME280;70343;51.530;5.050;2023-11-19T03:59:36;100806.09;;;10.93;100.00
80892;BME280;70343;51.530;5.050;2023-11-19T04:02:02;100810.75;;;10.98;100.00
80892;BME280;70343;51.530;5.050;2023-11-19T04:04:28;100820.31;;;10.91;100.00
80892;BME280;70343;51.530;5.050;2023-11-19T04:06:55;100816.31;;;10.95;100.00
80892;BME280;70343;51.530;5.050;2023-11-19T04:09:21;100825.53;;;10.91;100.00
80892;BME280;70343;51.530;5.050;2023-11-19T04:11:47;100831.19;;;10.94;100.00
80892;BME280;70343;51.530;5.050;2023-11-19T04:14:13;100821.53;;;10.95;100.00
80892;BME280;70343;51.530;5.050;2023-11-19T04:16:39;100819.75;;;10.95;100.00
80892;BME280;70343;51.530;5.050;2023-11-19T04:19:05;100817.69;;;10.91;100.00
80892;BME280;70343;51.530;5.050;2023-11-19T04:21:32;100826.72;;;10.88;100.00
80892;BME280;70343;51.530;5.050;2023-11-19T04:23:57;100827.50;;;10.82;100.00
80892;BME280;70343;51.530;5.050;2023-11-19T04:26:23;100827.03;;;10.78;100.00
80892;BME280;70343;51.530;5.050;2023-11-19T04:28:48;100834.69;;;10.80;100.00
80892;BME280;70343;51.530;5.050;2023-11-19T04:31:15;100830.66;;;10.77;100.00
80892;BME280;70343;51.530;5.050;2023-11-19T04:33:42;100816.19;;;10.75;100.00
80892;BME280;70343;51.530;5.050;2023-11-19T04:36:08;100817.81;;;10.76;100.00
80892;BME280;70343;51.530;5.050;2023-11-19T04:38:33;100824.28;;;10.80;100.00
80892;BME280;70343;51.530;5.050;2023-11-19T04:41:00;100823.03;;;10.76;100.00
80892;BME280;70343;51.530;5.050;2023-11-19T04:43:25;100831.91;;;10.82;100.00
80892;BME280;70343;51.530;5.050;2023-11-19T04:45:51;100821.59;;;10.73;100.00
80892;BME280;70343;51.530;5.050;2023-11-19T04:48:17;100840.28;;;10.77;100.00
80892;BME280;70343;51.530;5.050;2023-11-19T04:50:42;100828.28;;;10.83;100.00
80892;BME280;70343;51.530;5.050;2023-11-19T04:53:08;100831.28;;;10.80;100.00
80892;BME280;70343;51.530;5.050;2023-11-19T04:55:34;100836.28;;;10.81;100.00
80892;BME280;70343;51.530;5.050;2023-11-19T04:57:59;100836.28;;;10.74;100.00
80892;BME280;70343;51.530;5.050;2023-11-19T05:00:25;100836.28;;;10.74;100.00
80892;BME280;70343;51.530;5.050;2023-11-19T05:02:51;100844.66;;;10.70;100.00
80892;BME280;70343;51.530;5.050;2023-11-19T05:05:17;100845.00;;;10.67;100.00
80892;BME280;70343;51.530;5.050;2023-11-19T05:07:43;100839.00;;;10.66;100.00
80892;BME280;70343;51.530;5.050;2023-11-19T05:10:08;100834.78;;;10.65;100.00
80892;BME280;70343;51.530;5.050;2023-11-19T05:12:34;100846.38;;;10.63;100.00
80892;BME280;70343;51.530;5.050;2023-11-19T05:14:59;100853.63;;;10.61;100.00
80892;BME280;70343;51.530;5.050;2023-11-19T05:17:26;100852.59;;;10.62;100.00
80892;BME280;70343;51.530;5.050;2023-11-19T05:19:51;100849.47;;;10.73;100.00
80892;BME280;70343;51.530;5.050;2023-11-19T05:22:17;100843.47;;;10.72;100.00
80892;BME280;70343;51.530;5.050;2023-11-19T05:24:43;100847.81;;;10.65;100.00
80892;BME280;70343;51.530;5.050;2023-11-19T05:27:08;100848.06;;;10.70;100.00
80892;BME280;70343;51.530;5.050;2023-11-19T05:29:36;100855.41;;;10.60;100.00
80892;BME280;70343;51.530;5.050;2023-11-19T05:32:05;100850.63;;;10.64;100.00
80892;BME280;70343;51.530;5.050;2023-11-19T05:34:30;100852.19;;;10.58;100.00
80892;BME280;70343;51.530;5.050;2023-11-19T05:36:56;100853.34;;;10.56;100.00
80892;BME280;70343;51.530;5.050;2023-11-19T05:39:22;100852.19;;;10.58;100.00
80892;BME280;70343;51.530;5.050;2023-11-19T05:41:48;100859.00;;;10.59;100.00
80892;BME280;70343;51.530;5.050;2023-11-19T05:44:13;100849.94;;;10.55;100.00
80892;BME280;70343;51.530;5.050;2023-11-19T05:46:39;100848.69;;;10.51;100.00
80892;BME280;70343;51.530;5.050;2023-11-19T05:49:08;100842.88;;;10.49;100.00
80892;BME280;70343;51.530;5.050;2023-11-19T05:51:40;100850.06;;;10.47;100.00
80892;BME280;70343;51.530;5.050;2023-11-19T05:54:08;100862.50;;;10.45;100.00
80892;BME280;70343;51.530;5.050;2023-11-19T05:56:33;100863.72;;;10.49;100.00
80892;BME280;70343;51.530;5.050;2023-11-19T05:58:59;100872.53;;;10.48;100.00
80892;BME280;70343;51.530;5.050;2023-11-19T06:01:26;100871.53;;;10.49;100.00
80892;BME280;70343;51.530;5.050;2023-11-19T06:03:52;100864.84;;;10.40;100.00
80892;BME280;70343;51.530;5.050;2023-11-19T06:06:18;100868.00;;;10.36;100.00
80892;BME280;70343;51.530;5.050;2023-11-19T06:08:44;100860.03;;;10.37;100.00
80892;BME280;70343;51.530;5.050;2023-11-19T06:11:10;100852.75;;;10.33;100.00
80892;BME280;70343;51.530;5.050;2023-11-19T06:13:43;100857.41;;;10.37;100.00
80892;BME280;70343;51.530;5.050;2023-11-19T06:16:09;100847.16;;;10.36;100.00
80892;BME280;70343;51.530;5.050;2023-11-19T06:18:36;100851.31;;;10.30;100.00
80892;BME280;70343;51.530;5.050;2023-11-19T06:21:02;100844.00;;;10.40;100.00
80892;BME280;70343;51.530;5.050;2023-11-19T06:23:27;100847.59;;;10.39;100.00
80892;BME280;70343;51.530;5.050;2023-11-19T06:25:53;100846.38;;;10.35;100.00
80892;BME280;70343;51.530;5.050;2023-11-19T06:28:18;100843.69;;;10.29;100.00
80892;BME280;70343;51.530;5.050;2023-11-19T06:30:44;100849.34;;;10.32;100.00
80892;BME280;70343;51.530;5.050;2023-11-19T06:33:12;100849.72;;;10.29;100.00
80892;BME280;70343;51.530;5.050;2023-11-19T06:35:38;100858.34;;;10.30;100.00
80892;BME280;70343;51.530;5.050;2023-11-19T06:38:04;100854.31;;;10.27;100.00
80892;BME280;70343;51.530;5.050;2023-11-19T06:40:33;100854.75;;;10.31;100.00
80892;BME280;70343;51.530;5.050;2023-11-19T06:43:00;100861.94;;;10.29;100.00
80892;BME280;70343;51.530;5.050;2023-11-19T06:45:26;100848.34;;;10.33;100.00
80892;BME280;70343;51.530;5.050;2023-11-19T06:47:51;100858.72;;;10.27;100.00
80892;BME280;70343;51.530;5.050;2023-11-19T06:50:17;100871.97;;;10.32;100.00
80892;BME280;70343;51.530;5.050;2023-11-19T06:52:44;100859.53;;;10.27;100.00
80892;BME280;70343;51.530;5.050;2023-11-19T06:55:10;100866.28;;;10.22;100.00
80892;BME280;70343;51.530;5.050;2023-11-19T06:57:36;100870.31;;;10.24;100.00
80892;BME280;70343;51.530;5.050;2023-11-19T07:00:02;100882.69;;;10.22;100.00
80892;BME280;70343;51.530;5.050;2023-11-19T07:02:28;100878.63;;;10.13;100.00
80892;BME280;70343;51.530;5.050;2023-11-19T07:04:53;100881.66;;;10.17;100.00
80892;BME280;70343;51.530;5.050;2023-11-19T07:07:20;100893.50;;;10.19;100.00
80892;BME280;70343;51.530;5.050;2023-11-19T07:09:45;100893.69;;;10.18;100.00
80892;BME280;70343;51.530;5.050;2023-11-19T07:12:11;100903.56;;;10.22;100.00
80892;BME280;70343;51.530;5.050;2023-11-19T07:14:38;100904.75;;;10.20;100.00
80892;BME280;70343;51.530;5.050;2023-11-19T07:17:04;100905.28;;;10.15;100.00
80892;BME280;70343;51.530;5.050;2023-11-19T07:19:29;100908.72;;;10.16;100.00
80892;BME280;70343;51.530;5.050;2023-11-19T07:21:55;100906.34;;;10.21;100.00
80892;BME280;70343;51.530;5.050;2023-11-19T07:24:21;100905.72;;;10.19;100.00
80892;BME280;70343;51.530;5.050;2023-11-19T07:26:47;100912.72;;;10.18;100.00
80892;BME280;70343;51.530;5.050;2023-11-19T07:29:14;100903.94;;;10.19;100.00
80892;BME280;70343;51.530;5.050;2023-11-19T07:31:42;100907.53;;;10.18;100.00
80892;BME280;70343;51.530;5.050;2023-11-19T07:34:10;100908.13;;;10.20;100.00
80892;BME280;70343;51.530;5.050;2023-11-19T07:36:36;100900.31;;;10.20;100.00
80892;BME280;70343;51.530;5.050;2023-11-19T07:39:04;100904.91;;;10.18;100.00
80892;BME280;70343;51.530;5.050;2023-11-19T07:41:30;100917.84;;;10.26;100.00
80892;BME280;70343;51.530;5.050;2023-11-19T07:43:56;100913.88;;;10.30;100.00
80892;BME280;70343;51.530;5.050;2023-11-19T07:46:21;100906.88;;;10.31;100.00
80892;BME280;70343;51.530;5.050;2023-11-19T07:48:47;100908.03;;;10.28;100.00
80892;BME280;70343;51.530;5.050;2023-11-19T07:51:13;100914.59;;;10.24;100.00
80892;BME280;70343;51.530;5.050;2023-11-19T07:53:39;100909.28;;;10.32;100.00
80892;BME280;70343;51.530;5.050;2023-11-19T07:56:06;100908.03;;;10.28;100.00
80892;BME280;70343;51.530;5.050;2023-11-19T07:58:32;100915.69;;;10.30;100.00
80892;BME280;70343;51.530;5.050;2023-11-19T08:00:58;100912.69;;;10.33;100.00
80892;BME280;70343;51.530;5.050;2023-11-19T08:03:23;100917.72;;;10.34;100.00
80892;BME280;70343;51.530;5.050;2023-11-19T08:05:49;100905.94;;;10.38;100.00
80892;BME280;70343;51.530;5.050;2023-11-19T08:08:14;100913.56;;;10.40;100.00
80892;BME280;70343;51.530;5.050;2023-11-19T08:10:40;100911.41;;;10.43;100.00
80892;BME280;70343;51.530;5.050;2023-11-19T08:13:06;100917.50;;;10.50;100.00
80892;BME280;70343;51.530;5.050;2023-11-19T08:15:32;100922.69;;;10.50;100.00
80892;BME280;70343;51.530;5.050;2023-11-19T08:17:58;100922.94;;;10.55;100.00
80892;BME280;70343;51.530;5.050;2023-11-19T08:20:24;100916.75;;;10.56;100.00
80892;BME280;70343;51.530;5.050;2023-11-19T08:22:49;100914.75;;;10.58;100.00
80892;BME280;70343;51.530;5.050;2023-11-19T08:25:15;100924.38;;;10.58;100.00
80892;BME280;70343;51.530;5.050;2023-11-19T08:27:40;100914.06;;;10.71;100.00
80892;BME280;70343;51.530;5.050;2023-11-19T08:30:06;100919.34;;;10.77;100.00
80892;BME280;70343;51.530;5.050;2023-11-19T08:32:32;100909.53;;;10.80;100.00
80892;BME280;70343;51.530;5.050;2023-11-19T08:34:58;100911.13;;;10.81;100.00
80892;BME280;70343;51.530;5.050;2023-11-19T08:37:24;100916.59;;;10.86;100.00
80892;BME280;70343;51.530;5.050;2023-11-19T08:39:50;100925.41;;;10.85;100.00
80892;BME280;70343;51.530;5.050;2023-11-19T08:42:16;100919.06;;;10.94;100.00
80892;BME280;70343;51.530;5.050;2023-11-19T08:44:42;100922.03;;;10.91;100.00
80892;BME280;70343;51.530;5.050;2023-11-19T08:47:12;100927.13;;;10.99;100.00
80892;BME280;70343;51.530;5.050;2023-11-19T08:49:39;100926.78;;;11.02;100.00
80892;BME280;70343;51.530;5.050;2023-11-19T08:52:05;100924.09;;;10.95;100.00
80892;BME280;70343;51.530;5.050;2023-11-19T08:54:32;100926.38;;;11.05;100.00
80892;BME280;70343;51.530;5.050;2023-11-19T08:56:58;100930.44;;;11.14;100.00
80892;BME280;70343;51.530;5.050;2023-11-19T08:59:24;100933.25;;;11.12;100.00
80892;BME280;70343;51.530;5.050;2023-11-19T09:01:50;100928.84;;;11.13;100.00
80892;BME280;70343;51.530;5.050;2023-11-19T09:04:15;100934.88;;;11.13;100.00
80892;BME280;70343;51.530;5.050;2023-11-19T09:06:41;100938.91;;;11.16;100.00
80892;BME280;70343;51.530;5.050;2023-11-19T09:09:08;100944.38;;;11.21;100.00
80892;BME280;70343;51.530;5.050;2023-11-19T09:11:35;100937.16;;;11.23;100.00
80892;BME280;70343;51.530;5.050;2023-11-19T09:14:00;100949.44;;;11.29;100.00
80892;BME280;70343;51.530;5.050;2023-11-19T09:16:26;100913.66;;;11.23;100.00
80892;BME280;70343;51.530;5.050;2023-11-19T09:18:51;100910.81;;;11.18;100.00
80892;BME280;70343;51.530;5.050;2023-11-19T09:21:17;100904.03;;;11.23;100.00
80892;BME280;70343;51.530;5.050;2023-11-19T09:23:43;100912.50;;;11.32;100.00
80892;BME280;70343;51.530;5.050;2023-11-19T09:26:09;100915.38;;;11.37;100.00
80892;BME280;70343;51.530;5.050;2023-11-19T09:28:37;100920.25;;;11.46;100.00
80892;BME280;70343;51.530;5.050;2023-11-19T09:31:15;100907.38;;;11.45;100.00
80892;BME280;70343;51.530;5.050;2023-11-19T09:33:41;100915.81;;;11.47;100.00
80892;BME280;70343;51.530;5.050;2023-11-19T09:36:08;100909.41;;;11.49;100.00
80892;BME280;70343;51.530;5.050;2023-11-19T09:38:33;100914.06;;;11.54;100.00
80892;BME280;70343;51.530;5.050;2023-11-19T09:40:59;100909.53;;;11.69;100.00
80892;BME280;70343;51.530;5.050;2023-11-19T09:43:27;100912.19;;;11.76;100.00
80892;BME280;70343;51.530;5.050;2023-11-19T09:45:54;100921.25;;;11.86;100.00
80892;BME280;70343;51.530;5.050;2023-11-19T09:48:21;100914.09;;;12.01;100.00
80892;BME280;70343;51.530;5.050;2023-11-19T09:50:50;100925.81;;;12.18;100.00
80892;BME280;70343;51.530;5.050;2023-11-19T09:53:15;100909.94;;;12.20;100.00
80892;BME280;70343;51.530;5.050;2023-11-19T09:55:41;100916.56;;;12.16;100.00
80892;BME280;70343;51.530;5.050;2023-11-19T09:58:08;100906.50;;;12.19;100.00
80892;BME280;70343;51.530;5.050;2023-11-19T10:00:35;100910.94;;;12.25;100.00
80892;BME280;70343;51.530;5.050;2023-11-19T10:03:00;100911.75;;;12.26;100.00
80892;BME280;70343;51.530;5.050;2023-11-19T10:05:27;100911.38;;;12.35;100.00
80892;BME280;70343;51.530;5.050;2023-11-19T10:07:53;100903.72;;;12.40;100.00
80892;BME280;70343;51.530;5.050;2023-11-19T10:10:20;100911.56;;;12.40;100.00
80892;BME280;70343;51.530;5.050;2023-11-19T10:12:46;100911.78;;;12.39;100.00
80892;BME280;70343;51.530;5.050;2023-11-19T10:15:20;100902.94;;;12.40;100.00
80892;BME280;70343;51.530;5.050;2023-11-19T10:17:47;100908.78;;;12.48;100.00
80892;BME280;70343;51.530;5.050;2023-11-19T10:20:13;100911.78;;;12.39;100.00
80892;BME280;70343;51.530;5.050;2023-11-19T10:22:39;100901.72;;;12.36;100.00
80892;BME280;70343;51.530;5.050;2023-11-19T10:25:27;100900.31;;;12.46;100.00
80892;BME280;70343;51.530;5.050;2023-11-19T10:27:54;100896.91;;;12.39;100.00
80892;BME280;70343;51.530;5.050;2023-11-19T10:30:24;100904.78;;;12.46;100.00
80892;BME280;70343;51.530;5.050;2023-11-19T10:33:08;100903.38;;;12.50;100.00
80892;BME280;70343;51.530;5.050;2023-11-19T10:35:35;100902.53;;;12.56;100.00
80892;BME280;70343;51.530;5.050;2023-11-19T10:38:13;100916.25;;;12.51;100.00
80892;BME280;70343;51.530;5.050;2023-11-19T10:40:40;100918.84;;;12.45;100.00
80892;BME280;70343;51.530;5.050;2023-11-19T10:43:05;100923.69;;;12.48;100.00
80892;BME280;70343;51.530;5.050;2023-11-19T10:45:33;100917.44;;;12.62;100.00
80892;BME280;70343;51.530;5.050;2023-11-19T10:47:59;100897.94;;;12.65;100.00
80892;BME280;70343;51.530;5.050;2023-11-19T10:50:26;100908.81;;;12.62;100.00
80892;BME280;70343;51.530;5.050;2023-11-19T10:52:56;100914.66;;;12.64;100.00
80892;BME280;70343;51.530;5.050;2023-11-19T10:55:33;100920.25;;;12.61;100.00
80892;BME280;70343;51.530;5.050;2023-11-19T10:58:04;100901.34;;;12.72;100.00
80892;BME280;70343;51.530;5.050;2023-11-19T11:00:43;100901.75;;;12.69;100.00
80892;BME280;70343;51.530;5.050;2023-11-19T11:03:17;100900.53;;;12.65;100.00
80892;BME280;70343;51.530;5.050;2023-11-19T11:05:46;100915.03;;;12.61;100.00
80892;BME280;70343;51.530;5.050;2023-11-19T11:08:13;100923.91;;;12.60;100.00
80892;BME280;70343;51.530;5.050;2023-11-19T11:10:49;100914.22;;;12.47;100.00
80892;BME280;70343;51.530;5.050;2023-11-19T11:13:16;100901.34;;;12.45;100.00
80892;BME280;70343;51.530;5.050;2023-11-19T11:15:43;100916.59;;;12.35;100.00
80892;BME280;70343;51.530;5.050;2023-11-19T11:18:12;100911.56;;;12.27;100.00
80892;BME280;70343;51.530;5.050;2023-11-19T11:20:38;100897.06;;;12.18;100.00
80892;BME280;70343;51.530;5.050;2023-11-19T11:29:26;100893.69;;;12.50;100.00
80892;BME280;70343;51.530;5.050;2023-11-19T11:39:41;100884.25;;;12.89;100.00
80892;BME280;70343;51.530;5.050;2023-11-19T11:50:22;100873.97;;;13.20;100.00
80892;BME280;70343;51.530;5.050;2023-11-19T11:57:57;100857.06;;;12.96;100.00
80892;BME280;70343;51.530;5.050;2023-11-19T12:03:04;100861.69;;;13.01;100.00
80892;BME280;70343;51.530;5.050;2023-11-19T12:05:30;100853.25;;;13.12;100.00
80892;BME280;70343;51.530;5.050;2023-11-19T12:08:01;100849.22;;;13.09;100.00
80892;BME280;70343;51.530;5.050;2023-11-19T12:10:31;100843.94;;;13.22;100.00
80892;BME280;70343;51.530;5.050;2023-11-19T12:13:00;100846.22;;;13.12;100.00
80892;BME280;70343;51.530;5.050;2023-11-19T12:15:26;100836.56;;;13.06;100.00
80892;BME280;70343;51.530;5.050;2023-11-19T12:17:54;100830.28;;;13.14;100.00
80892;BME280;70343;51.530;5.050;2023-11-19T12:20:26;100833.50;;;13.16;100.00
80892;BME280;70343;51.530;5.050;2023-11-19T12:22:53;100847.41;;;13.03;100.00
80892;BME280;70343;51.530;5.050;2023-11-19T12:25:19;100838.94;;;13.01;100.00
80892;BME280;70343;51.530;5.050;2023-11-19T12:27:52;100846.59;;;13.03;100.00
80892;BME280;70343;51.530;5.050;2023-11-19T12:30:22;100856.69;;;13.06;100.00
80892;BME280;70343;51.530;5.050;2023-11-19T12:32:49;100854.63;;;13.01;100.00
80892;BME280;70343;51.530;5.050;2023-11-19T12:35:14;100859.88;;;12.88;100.00
80892;BME280;70343;51.530;5.050;2023-11-19T12:37:40;100859.88;;;12.82;100.00
80892;BME280;70343;51.530;5.050;2023-11-19T12:40:24;100853.25;;;12.73;100.00
80892;BME280;70343;51.530;5.050;2023-11-19T12:42:52;100859.69;;;12.70;100.00
80892;BME280;70343;51.530;5.050;2023-11-19T12:45:18;100864.53;;;12.67;100.00
80892;BME280;70343;51.530;5.050;2023-11-19T12:47:47;100853.06;;;12.48;100.00
80892;BME280;70343;51.530;5.050;2023-11-19T12:50:14;100858.28;;;12.41;100.00
80892;BME280;70343;51.530;5.050;2023-11-19T12:52:39;100854.03;;;12.27;100.00
80892;BME280;70343;51.530;5.050;2023-11-19T12:57:52;100855.00;;;12.13;100.00
80892;BME280;70343;51.530;5.050;2023-11-19T13:00:23;100859.25;;;12.27;100.00
80892;BME280;70343;51.530;5.050;2023-11-19T13:08:09;100850.63;;;12.53;100.00
80892;BME280;70343;51.530;5.050;2023-11-19T13:10:53;100851.84;;;12.50;100.00
80892;BME280;70343;51.530;5.050;2023-11-19T13:13:21;100855.09;;;12.66;100.00
80892;BME280;70343;51.530;5.050;2023-11-19T13:15:47;100845.22;;;12.81;100.00
80892;BME280;70343;51.530;5.050;2023-11-19T13:18:16;100849.41;;;12.82;100.00
80892;BME280;70343;51.530;5.050;2023-11-19T13:20:41;100839.75;;;12.82;100.00